Strona główna
METAR-TAF:

METAR-TAF

Lotnisko :

Port lotniczy Kair

Kair, Egipt

Szerokość geograficzna: 30-08N, Długość geograficzna: 031-24E, wysokość: 64 m

Aktualna obserwacja pogody

Raport powstał 33 minut temu, godzina 00:30 UTC
Wiatr 18 kt od południowo-południowy wschód
Temperatura 30°C
Wilgotność 13%
Ciśnienie 1006 hPa
Widzialność: 6000 m

METAR: HECA 050030Z 16018KT 6000 NSC 30/M01 Q1006 NOSIG

czas: 03:03 (01:03 UTC)

Prognoza

Raport powstał 1 godzina i 22 minut temu, godzina 23:41 UTC
Prognoza ważna od 05 godzina 00 UTC do 06 godzina 06 UTC
Wiatr 11 kt od południe
Widzialność: 6000 m
Przejściowo
od 05 godzina 00 UTC do 05 godzina 06 UTC
Wiatr 18 kt od południowo-południowy wschód w porywach dochodzący do 28 kt
Widzialność: 3000 m
piasek

TAF: HECA 042341Z 0500/0606 19011KT 6000 NSC TEMPO 0500/0506 16018G28KT 3000 SA

Obserwacja i prognoza pogody dla ponad 4000 lotnisk (raport METAR i TAF).

Dostępne stacje oznaczono żółtymi i czerwonymi punktami na mapie.

Najedź kursorem aby zobaczyć nazwę stacji.

Kliknij aby zobaczyć obserwacje i prognozy pogody.

Aby zmienić mapę: kliknij na zielony przycisk z czarnym krzyżykiem, aby powiększyć; na zielony przycisk z myślnikiem, aby pomniejszyć; na zielone strzałki, aby przejść do map sąsiednich.


METAR-TAF: